createdAt,value
2023-01-21T00:01:23.064Z,13.00
2023-01-21T00:04:51.794Z,19.00
2023-01-21T00:07:19.945Z,15.50
2023-01-21T00:09:48.130Z,18.00
2023-01-21T00:12:16.277Z,21.50
2023-01-21T00:14:44.609Z,15.50
2023-01-21T00:17:12.539Z,17.50
2023-01-21T00:19:40.557Z,14.00
2023-01-21T00:22:08.763Z,13.33
2023-01-21T00:24:36.824Z,11.00
2023-01-21T00:27:05.130Z,11.50
2023-01-21T00:29:33.140Z,11.50
2023-01-21T00:32:01.257Z,13.50
2023-01-21T00:35:31.847Z,11.00
2023-01-21T00:38:00.177Z,11.00
2023-01-21T00:40:28.203Z,11.00
2023-01-21T00:42:56.311Z,11.00
2023-01-21T00:45:24.231Z,9.00
2023-01-21T00:47:52.355Z,9.00
2023-01-21T00:50:20.487Z,11.50
2023-01-21T00:52:48.418Z,8.00
2023-01-21T00:55:16.590Z,8.00
2023-01-21T00:57:44.800Z,9.00
2023-01-21T01:00:15.286Z,9.00
2023-01-21T01:02:43.882Z,8.00
2023-01-21T01:06:12.758Z,11.00
2023-01-21T01:10:29.569Z,8.00
2023-01-21T01:13:02.080Z,9.00
2023-01-21T01:16:30.858Z,8.00
2023-01-21T01:20:27.475Z,5.00
2023-01-21T01:22:55.544Z,7.00
2023-01-21T01:25:23.613Z,5.00
2023-01-21T01:27:51.607Z,5.00
2023-01-21T01:30:20.036Z,5.00
2023-01-21T01:32:49.251Z,8.00
2023-01-21T01:35:17.773Z,5.00
2023-01-21T01:37:45.833Z,4.00
2023-01-21T01:40:14.554Z,6.50
2023-01-21T01:42:42.806Z,5.00
2023-01-21T01:46:17.456Z,5.00
2023-01-21T01:49:19.811Z,4.00
2023-01-21T01:51:59.214Z,5.00
2023-01-21T01:54:38.393Z,8.00
2023-01-21T01:57:12.513Z,5.00
2023-01-21T01:59:42.771Z,5.50
2023-01-21T02:02:17.928Z,8.00
2023-01-21T02:04:51.500Z,5.50
2023-01-21T02:07:22.892Z,6.00
2023-01-21T02:09:53.832Z,8.50
2023-01-21T02:12:23.792Z,11.00
2023-01-21T02:14:51.974Z,10.00
2023-01-21T02:17:20.132Z,9.00
2023-01-21T02:20:04.251Z,12.00
2023-01-21T02:23:06.654Z,12.00
2023-01-21T02:26:06.250Z,5.50
2023-01-21T02:29:01.202Z,12.00
2023-01-21T02:31:57.453Z,8.00
2023-01-21T02:34:55.269Z,8.00
2023-01-21T02:38:28.202Z,10.00
2023-01-21T02:44:57.065Z,11.00
2023-01-21T02:47:44.031Z,14.00
2023-01-21T02:50:21.050Z,13.50
2023-01-21T02:53:03.173Z,12.50
2023-01-21T02:55:42.014Z,16.00
2023-01-21T02:58:16.849Z,10.00
2023-01-21T03:01:09.931Z,8.00
2023-01-21T03:03:48.927Z,9.00
2023-01-21T03:06:54.645Z,7.00
2023-01-21T03:09:29.167Z,8.00
2023-01-21T03:12:03.355Z,6.00
2023-01-21T03:14:59.158Z,9.00
2023-01-21T03:17:56.756Z,13.00
2023-01-21T03:20:36.690Z,8.00
2023-01-21T03:23:10.982Z,10.00
2023-01-21T03:25:41.286Z,5.00
2023-01-21T03:28:14.345Z,6.00
2023-01-21T03:30:48.030Z,6.00
2023-01-21T03:33:20.507Z,5.00
2023-01-21T03:35:51.357Z,6.00
2023-01-21T03:38:31.667Z,7.33
2023-01-21T03:41:10.708Z,8.00
2023-01-21T03:43:39.731Z,7.00
2023-01-21T03:46:14.113Z,6.00
2023-01-21T03:48:55.753Z,0.00
2023-01-21T03:51:32.985Z,4.50
2023-01-21T03:54:01.125Z,5.00
2023-01-21T03:56:29.424Z,4.00
2023-01-21T03:58:57.656Z,4.00
2023-01-21T04:01:25.777Z,5.00
2023-01-21T04:03:53.873Z,4.00
2023-01-21T04:06:23.207Z,4.00
2023-01-21T04:09:51.844Z,5.00
2023-01-21T04:12:20.676Z,3.00
2023-01-21T04:14:48.786Z,4.67
2023-01-21T04:17:16.847Z,5.00
2023-01-21T04:20:45.832Z,2.00
2023-01-21T04:24:55.186Z,5.00
2023-01-21T04:29:23.962Z,9.00
2023-01-21T04:34:20.952Z,31.00
2023-01-21T04:36:49.068Z,27.00
2023-01-21T04:39:17.268Z,24.50
2023-01-21T04:41:45.926Z,30.00
2023-01-21T04:44:15.126Z,28.00
2023-01-21T04:46:43.124Z,29.00
2023-01-21T04:49:11.224Z,23.00
2023-01-21T04:51:39.357Z,18.00
2023-01-21T04:54:07.744Z,13.00
2023-01-21T04:56:35.800Z,11.00
2023-01-21T04:59:04.365Z,6.00
2023-01-21T05:02:12.893Z,5.67
2023-01-21T05:04:41.034Z,4.00
2023-01-21T05:07:09.194Z,5.00
2023-01-21T05:09:37.590Z,5.00
2023-01-21T05:13:06.103Z,4.00
2023-01-21T05:17:34.485Z,4.00
2023-01-21T05:20:02.774Z,4.00
2023-01-21T05:22:31.124Z,4.33
2023-01-21T05:25:00.712Z,2.00
2023-01-21T05:27:28.800Z,6.00
2023-01-21T05:29:57.296Z,4.00
2023-01-21T05:32:25.450Z,4.00
2023-01-21T05:34:53.628Z,2.00
2023-01-21T05:37:21.638Z,5.50
2023-01-21T05:39:49.712Z,4.50
2023-01-21T05:42:37.955Z,5.00
2023-01-21T05:45:06.457Z,8.00
2023-01-21T05:47:34.459Z,5.00
2023-01-21T05:52:30.595Z,7.50
2023-01-21T05:55:02.299Z,6.00
2023-01-21T05:57:31.621Z,11.00
2023-01-21T06:00:00.351Z,9.00
2023-01-21T06:02:28.635Z,11.00
2023-01-21T06:04:56.816Z,8.00
2023-01-21T06:07:25.100Z,8.00
2023-01-21T06:09:53.209Z,8.00
2023-01-21T06:12:23.835Z,12.00
2023-01-21T06:14:53.019Z,11.50
2023-01-21T06:17:21.389Z,12.00
2023-01-21T06:19:49.550Z,11.50
2023-01-21T06:23:58.133Z,12.00
2023-01-21T06:28:27.099Z,9.00
2023-01-21T06:31:55.461Z,7.50
2023-01-21T06:34:23.773Z,12.00
2023-01-21T06:36:52.411Z,9.00
2023-01-21T06:39:20.437Z,9.00
2023-01-21T06:41:48.702Z,14.00
2023-01-21T06:44:16.830Z,11.00
2023-01-21T06:46:52.181Z,15.00
2023-01-21T06:49:27.962Z,11.00
2023-01-21T06:51:56.659Z,8.00
2023-01-21T06:55:25.360Z,7.00
2023-01-21T06:57:53.602Z,8.00
2023-01-21T07:00:22.340Z,10.00
2023-01-21T07:02:50.401Z,15.00
2023-01-21T07:05:20.827Z,12.00
2023-01-21T07:07:48.948Z,11.00
2023-01-21T07:10:17.582Z,12.00
2023-01-21T07:12:46.952Z,8.00
2023-01-21T07:16:15.802Z,9.00
2023-01-21T07:19:23.883Z,7.50
2023-01-21T07:21:52.007Z,12.00
2023-01-21T07:26:48.562Z,14.50
2023-01-21T07:29:16.590Z,14.00
2023-01-21T07:31:44.610Z,13.00
2023-01-21T07:34:13.070Z,22.00
2023-01-21T07:36:41.191Z,24.50
2023-01-21T07:39:09.329Z,25.00
2023-01-21T07:41:38.444Z,26.00
2023-01-21T07:44:10.234Z,22.00
2023-01-21T07:46:38.422Z,19.00
2023-01-21T07:49:06.493Z,0.00
2023-01-21T07:51:35.702Z,17.50
2023-01-21T07:54:03.996Z,24.00
2023-01-21T07:56:32.189Z,20.00
2023-01-21T07:59:00.421Z,26.00
2023-01-21T08:01:31.187Z,21.00
2023-01-21T08:04:01.597Z,22.00
2023-01-21T08:06:29.737Z,21.00
2023-01-21T08:08:57.812Z,28.00
2023-01-21T08:11:25.995Z,29.00
2023-01-21T08:13:54.091Z,24.00
2023-01-21T08:16:22.475Z,2.00
2023-01-21T08:18:50.741Z,15.00
2023-01-21T08:21:21.021Z,14.00
2023-01-21T08:23:49.049Z,17.00
2023-01-21T08:26:20.353Z,8.50
2023-01-21T08:29:28.747Z,14.00
2023-01-21T08:31:57.874Z,13.00
2023-01-21T08:34:26.388Z,16.50
2023-01-21T08:37:55.187Z,20.00
2023-01-21T08:40:34.410Z,18.00
2023-01-21T08:43:04.794Z,10.00
2023-01-21T08:45:32.731Z,17.00
2023-01-21T08:48:06.684Z,20.00
2023-01-21T08:50:35.798Z,13.00
2023-01-21T08:53:04.009Z,16.50
2023-01-21T08:55:32.191Z,16.00
2023-01-21T08:58:00.471Z,22.00
2023-01-21T09:00:28.616Z,17.67
2023-01-21T09:02:58.918Z,21.00
2023-01-21T09:05:28.146Z,18.00
2023-01-21T09:07:58.139Z,24.00
2023-01-21T09:10:45.359Z,32.00
2023-01-21T09:13:13.436Z,25.00
2023-01-21T09:15:43.900Z,21.00
2023-01-21T09:18:13.257Z,16.50
2023-01-21T09:20:41.862Z,16.00
2023-01-21T09:23:25.698Z,17.00
2023-01-21T09:26:01.555Z,14.50
2023-01-21T09:28:34.597Z,10.00
2023-01-21T09:31:11.249Z,14.00
2023-01-21T09:33:41.658Z,13.00
2023-01-21T09:36:14.734Z,20.00
2023-01-21T09:38:43.852Z,19.50
2023-01-21T09:41:24.257Z,12.33
2023-01-21T09:44:25.104Z,20.00
2023-01-21T09:47:26.416Z,23.00
2023-01-21T09:50:00.141Z,24.00
2023-01-21T09:52:47.041Z,20.00
2023-01-21T09:55:24.235Z,17.00
2023-01-21T09:58:02.175Z,20.00
2023-01-21T10:00:41.898Z,25.33
2023-01-21T10:03:20.189Z,27.00
2023-01-21T10:05:58.602Z,29.00
2023-01-21T10:08:58.871Z,20.00
2023-01-21T10:12:09.029Z,24.00
2023-01-21T10:14:48.784Z,23.00
2023-01-21T10:17:55.138Z,17.00
2023-01-21T10:20:31.845Z,20.00
2023-01-21T10:23:20.687Z,18.00
2023-01-21T10:25:50.400Z,17.00
2023-01-21T10:28:28.525Z,18.00
2023-01-21T10:31:22.841Z,13.00
2023-01-21T10:33:51.459Z,19.00
2023-01-21T10:36:22.616Z,12.33
2023-01-21T10:39:01.365Z,23.00
2023-01-21T10:42:14.167Z,16.50
2023-01-21T10:45:09.989Z,15.00
2023-01-21T10:48:03.190Z,26.00
2023-01-21T10:50:42.127Z,20.00
2023-01-21T10:53:22.666Z,10.00
2023-01-21T10:56:01.593Z,14.00
2023-01-21T10:58:36.144Z,21.50
2023-01-21T11:02:11.085Z,22.50
2023-01-21T11:04:48.037Z,26.00
2023-01-21T11:07:20.679Z,17.00
2023-01-21T11:09:49.033Z,14.50
2023-01-21T11:12:40.431Z,13.00
2023-01-21T11:15:16.140Z,6.00
2023-01-21T11:17:46.971Z,13.00
2023-01-21T11:20:42.013Z,13.00
2023-01-21T11:24:10.777Z,14.00
2023-01-21T11:27:35.685Z,14.00
2023-01-21T11:30:25.929Z,9.00
2023-01-21T11:33:22.017Z,13.00
2023-01-21T11:35:50.657Z,13.00
2023-01-21T11:38:35.613Z,17.67
2023-01-21T11:41:12.910Z,16.00
2023-01-21T11:43:42.833Z,14.50
2023-01-21T11:46:23.275Z,16.00
2023-01-21T11:49:15.605Z,17.00
2023-01-21T11:51:46.371Z,14.50
2023-01-21T11:54:24.911Z,10.00
2023-01-21T11:57:01.641Z,11.00
2023-01-21T11:59:39.133Z,13.00
2023-01-21T12:02:18.949Z,12.50
2023-01-21T12:04:51.810Z,20.00
2023-01-21T12:07:36.274Z,19.50
2023-01-21T12:10:15.843Z,16.00
2023-01-21T12:12:50.680Z,18.00
2023-01-21T12:15:33.461Z,24.00
2023-01-21T12:18:01.547Z,17.00
2023-01-21T12:20:44.875Z,21.00
2023-01-21T12:23:49.798Z,23.00
2023-01-21T12:26:33.447Z,23.00
2023-01-21T12:29:01.820Z,19.00
2023-01-21T12:31:35.754Z,17.00
2023-01-21T12:34:36.799Z,23.50
2023-01-21T12:39:44.782Z,54.00
2023-01-21T12:42:19.907Z,50.00
2023-01-21T12:45:48.762Z,47.00
2023-01-21T12:48:45.150Z,40.00
2023-01-21T12:51:37.762Z,25.50
2023-01-21T12:54:25.057Z,22.00
2023-01-21T12:57:17.341Z,20.00
2023-01-21T13:00:03.641Z,31.50
2023-01-21T13:02:42.161Z,27.00
2023-01-21T13:05:21.908Z,36.00
2023-01-21T13:09:34.421Z,24.50
2023-01-21T13:12:20.088Z,37.00
2023-01-21T13:15:02.738Z,29.50
2023-01-21T13:17:38.526Z,35.50
2023-01-21T13:20:35.084Z,34.00
2023-01-21T13:23:13.028Z,22.00
2023-01-21T13:25:57.443Z,20.00
2023-01-21T13:28:28.353Z,18.00
2023-01-21T13:31:00.663Z,18.00
2023-01-21T13:33:40.816Z,16.00
2023-01-21T13:36:33.931Z,14.00
2023-01-21T13:39:25.920Z,16.00
2023-01-21T13:42:28.073Z,17.00
2023-01-21T13:45:09.310Z,14.50
2023-01-21T13:48:06.131Z,15.00
2023-01-21T13:51:05.658Z,17.67
2023-01-21T13:54:06.166Z,16.00
2023-01-21T13:57:43.539Z,17.50
2023-01-21T14:00:12.961Z,24.00
2023-01-21T14:02:55.653Z,26.50
2023-01-21T14:05:34.163Z,21.00
2023-01-21T14:08:11.734Z,22.50
2023-01-21T14:10:49.083Z,17.00
2023-01-21T14:13:51.184Z,17.00
2023-01-21T14:17:41.463Z,13.50
2023-01-21T14:21:02.640Z,11.00
2023-01-21T14:23:34.598Z,13.00
2023-01-21T14:26:37.507Z,16.00
2023-01-21T14:29:38.667Z,16.00
2023-01-21T14:32:31.812Z,18.50
2023-01-21T14:35:14.103Z,17.00
2023-01-21T14:37:53.657Z,14.00
2023-01-21T14:40:30.343Z,14.00
2023-01-21T14:42:59.330Z,23.00
2023-01-21T14:45:54.219Z,30.00
2023-01-21T14:48:34.452Z,34.50
2023-01-21T14:51:05.944Z,37.50
2023-01-21T14:53:45.617Z,39.00
2023-01-21T14:57:19.131Z,31.00
2023-01-21T15:00:34.722Z,25.00
2023-01-21T15:03:28.121Z,29.00
2023-01-21T15:06:09.053Z,32.50
2023-01-21T15:08:46.191Z,36.50
2023-01-21T15:11:30.752Z,46.50
2023-01-21T15:14:15.238Z,55.00
2023-01-21T15:16:45.019Z,56.50
2023-01-21T15:19:14.855Z,52.67
2023-01-21T15:21:59.877Z,49.00
2023-01-21T15:24:33.290Z,58.00
2023-01-21T15:27:23.851Z,44.00
2023-01-21T15:29:55.190Z,30.00
2023-01-21T15:32:48.312Z,27.50
2023-01-21T15:35:31.560Z,28.50
2023-01-21T15:38:03.201Z,31.00
2023-01-21T15:40:43.463Z,31.00
2023-01-21T15:43:27.430Z,33.00
2023-01-21T15:46:16.922Z,20.00
2023-01-21T15:49:44.168Z,26.00
2023-01-21T15:53:01.336Z,18.50
2023-01-21T15:56:01.888Z,20.00
2023-01-21T15:59:33.667Z,19.00
2023-01-21T16:05:00.799Z,24.00
2023-01-21T16:08:08.546Z,25.50
2023-01-21T16:10:52.632Z,24.00
2023-01-21T16:13:39.096Z,18.00
2023-01-21T16:16:36.709Z,17.00
2023-01-21T16:19:09.699Z,16.00
2023-01-21T16:21:42.873Z,17.00
2023-01-21T16:24:19.234Z,18.33
2023-01-21T16:27:24.357Z,19.00
2023-01-21T16:30:00.145Z,18.00
2023-01-21T16:32:31.043Z,20.00
2023-01-21T16:35:00.186Z,22.50
2023-01-21T16:37:30.624Z,20.00
2023-01-21T16:40:23.936Z,30.00
2023-01-21T16:43:27.876Z,26.00
2023-01-21T16:46:01.799Z,29.00
2023-01-21T16:48:34.016Z,28.50
2023-01-21T16:51:02.978Z,40.50
2023-01-21T16:53:31.294Z,40.00
2023-01-21T16:56:00.272Z,42.00
2023-01-21T16:58:32.728Z,37.00
2023-01-21T17:01:10.918Z,33.00
2023-01-21T17:03:40.385Z,35.00
2023-01-21T17:06:11.209Z,36.00
2023-01-21T17:08:40.413Z,46.00
2023-01-21T17:12:09.217Z,44.00
2023-01-21T17:14:37.926Z,42.50
2023-01-21T17:17:09.291Z,39.00
2023-01-21T17:19:44.887Z,0.00
2023-01-21T17:22:18.876Z,34.00
2023-01-21T17:25:02.744Z,40.00
2023-01-21T17:27:33.700Z,43.00
2023-01-21T17:30:26.898Z,44.00
2023-01-21T17:33:02.644Z,40.00
2023-01-21T17:35:35.666Z,39.00
2023-01-21T17:38:11.502Z,47.33
2023-01-21T17:41:01.250Z,46.00
2023-01-21T17:43:29.721Z,44.00
2023-01-21T17:45:58.227Z,47.00
2023-01-21T17:48:30.494Z,36.00
2023-01-21T17:51:14.921Z,44.00
2023-01-21T17:53:55.674Z,43.50
2023-01-21T17:56:49.317Z,44.00
2023-01-21T17:59:41.899Z,47.00
2023-01-21T18:02:13.599Z,52.00
2023-01-21T18:04:43.550Z,54.00
2023-01-21T18:07:26.004Z,52.00
2023-01-21T18:09:54.875Z,54.00
2023-01-21T18:12:23.056Z,50.50
2023-01-21T18:17:23.051Z,51.00
2023-01-21T18:19:51.927Z,44.00
2023-01-21T18:22:26.142Z,53.00
2023-01-21T18:24:54.547Z,50.00
2023-01-21T18:27:26.111Z,53.00
2023-01-21T18:29:54.763Z,53.33
2023-01-21T18:32:22.951Z,61.00
2023-01-21T18:34:51.388Z,52.33
2023-01-21T18:37:20.707Z,59.50
2023-01-21T18:39:48.820Z,63.33
2023-01-21T18:42:18.119Z,62.50
2023-01-21T18:44:46.240Z,65.00
2023-01-21T18:47:17.407Z,53.00
2023-01-21T18:49:49.574Z,62.50
2023-01-21T18:54:47.397Z,61.50
2023-01-21T18:57:23.140Z,54.00
2023-01-21T18:59:56.217Z,54.00
2023-01-21T19:02:24.318Z,49.00
2023-01-21T19:04:52.691Z,46.00
2023-01-21T19:07:22.915Z,51.50
2023-01-21T19:09:51.346Z,45.50
2023-01-21T19:12:24.462Z,49.00
2023-01-21T19:14:53.398Z,42.50
2023-01-21T19:17:31.297Z,45.00
2023-01-21T19:19:59.676Z,41.00
2023-01-21T19:22:27.946Z,43.33
2023-01-21T19:24:56.014Z,43.00
2023-01-21T19:27:30.353Z,43.50
2023-01-21T19:29:58.619Z,42.00
2023-01-21T19:32:26.573Z,40.50
2023-01-21T19:34:55.902Z,40.00
2023-01-21T19:37:25.608Z,40.00
2023-01-21T19:39:54.843Z,43.00
2023-01-21T19:42:23.050Z,43.50
2023-01-21T19:44:51.443Z,43.67
2023-01-21T19:47:28.107Z,49.00
2023-01-21T19:49:56.383Z,51.00
2023-01-21T19:52:24.682Z,53.00
2023-01-21T19:54:55.097Z,56.00
2023-01-21T19:59:53.304Z,60.00
2023-01-21T20:02:23.590Z,60.50
2023-01-21T20:04:52.484Z,55.50
2023-01-21T20:07:22.251Z,51.00
2023-01-21T20:09:50.395Z,51.00
2023-01-21T20:12:18.662Z,47.00
2023-01-21T20:14:47.194Z,38.00
2023-01-21T20:17:16.773Z,40.00
2023-01-21T20:19:44.858Z,43.00
2023-01-21T20:22:13.457Z,38.00
2023-01-21T20:24:41.875Z,43.00
2023-01-21T20:27:14.400Z,36.00
2023-01-21T20:29:49.671Z,39.50
2023-01-21T20:32:24.039Z,33.00
2023-01-21T20:34:53.370Z,14.00
2023-01-21T20:37:21.628Z,46.00
2023-01-21T20:39:50.746Z,54.00
2023-01-21T20:42:18.846Z,52.00
2023-01-21T20:44:46.965Z,57.00
2023-01-21T20:47:16.687Z,56.00
2023-01-21T20:49:46.940Z,57.00
2023-01-21T20:52:15.289Z,53.50
2023-01-21T20:54:43.487Z,59.50
2023-01-21T20:57:14.690Z,56.00
2023-01-21T20:59:42.801Z,59.00
2023-01-21T21:02:12.471Z,60.00
2023-01-21T21:04:42.413Z,63.00
2023-01-21T21:07:16.233Z,63.00
2023-01-21T21:09:44.372Z,59.50
2023-01-21T21:12:12.376Z,64.00
2023-01-21T21:14:40.484Z,58.00
2023-01-21T21:17:12.860Z,60.00
2023-01-21T21:19:41.100Z,52.00
2023-01-21T21:22:09.325Z,58.50
2023-01-21T21:24:37.605Z,59.00
2023-01-21T21:27:05.772Z,57.00
2023-01-21T21:29:33.829Z,56.33
2023-01-21T21:32:02.665Z,54.50
2023-01-21T21:34:30.760Z,53.00
2023-01-21T21:36:58.920Z,58.67
2023-01-21T21:39:26.996Z,56.50
2023-01-21T21:42:15.958Z,59.50
2023-01-21T21:44:44.391Z,63.00
2023-01-21T21:47:31.362Z,59.00
2023-01-21T21:49:59.516Z,57.00
2023-01-21T21:52:27.831Z,59.00
2023-01-21T21:54:56.253Z,52.00
2023-01-21T21:59:52.526Z,56.00
2023-01-21T22:02:20.786Z,61.50
2023-01-21T22:04:55.085Z,57.50
2023-01-21T22:07:24.453Z,56.00
2023-01-21T22:09:52.765Z,60.00
2023-01-21T22:12:20.907Z,59.00
2023-01-21T22:14:49.051Z,63.50
2023-01-21T22:17:17.166Z,56.50
2023-01-21T22:19:45.316Z,58.00
2023-01-21T22:22:13.503Z,59.00
2023-01-21T22:24:44.450Z,56.00
2023-01-21T22:27:13.248Z,56.00
2023-01-21T22:29:41.274Z,63.00
2023-01-21T22:32:09.388Z,58.00
2023-01-21T22:34:38.668Z,61.00
2023-01-21T22:37:06.762Z,57.00
2023-01-21T22:39:34.991Z,61.00
2023-01-21T22:42:05.184Z,49.50
2023-01-21T22:44:33.271Z,53.00
2023-01-21T22:47:01.375Z,57.00
2023-01-21T22:49:29.489Z,57.00
2023-01-21T22:51:57.623Z,56.00
2023-01-21T22:54:25.681Z,54.00
2023-01-21T22:56:53.683Z,54.00
2023-01-21T22:59:22.227Z,58.50
2023-01-21T23:01:51.404Z,53.50
2023-01-21T23:04:20.800Z,55.00
2023-01-21T23:06:51.343Z,57.00
2023-01-21T23:09:19.456Z,50.00
2023-01-21T23:11:47.636Z,52.00
2023-01-21T23:14:17.486Z,52.00
2023-01-21T23:16:46.420Z,52.00
2023-01-21T23:19:14.582Z,56.00
2023-01-21T23:21:42.754Z,56.50
2023-01-21T23:24:12.813Z,48.00
2023-01-21T23:26:40.854Z,53.00
2023-01-21T23:29:09.329Z,47.50
2023-01-21T23:31:37.604Z,56.00
2023-01-21T23:34:06.024Z,54.00
2023-01-21T23:39:02.064Z,60.00
2023-01-21T23:41:30.341Z,56.50
2023-01-21T23:44:00.513Z,56.33
2023-01-21T23:46:28.841Z,63.50
2023-01-21T23:48:56.920Z,61.00
2023-01-21T23:51:25.491Z,57.00
2023-01-21T23:53:53.824Z,65.50
2023-01-21T23:56:24.389Z,72.00
2023-01-21T23:58:52.580Z,64.00
